createdAt,value
2019-02-26T00:02:53.011Z,103.20
2019-02-26T00:06:01.563Z,102.27
2019-02-26T00:09:08.131Z,101.10
2019-02-26T00:12:14.971Z,99.10
2019-02-26T00:15:19.791Z,102.03
2019-02-26T00:18:24.427Z,94.73
2019-02-26T00:21:30.972Z,90.57
2019-02-26T00:24:37.604Z,89.50
2019-02-26T00:27:54.105Z,85.13
2019-02-26T00:30:59.505Z,84.73
2019-02-26T00:34:05.993Z,82.00
2019-02-26T00:37:11.765Z,83.90
2019-02-26T00:40:20.159Z,85.27
2019-02-26T00:43:27.448Z,81.10
2019-02-26T00:46:32.429Z,79.70
2019-02-26T00:49:36.874Z,81.67
2019-02-26T00:52:41.401Z,79.80
2019-02-26T00:55:49.097Z,79.33
2019-02-26T00:58:54.044Z,76.67
2019-02-26T01:01:59.374Z,80.87
2019-02-26T01:05:06.177Z,76.00
2019-02-26T01:08:15.167Z,74.17
2019-02-26T01:11:22.190Z,73.80
2019-02-26T01:14:28.724Z,77.50
2019-02-26T01:17:33.465Z,73.87
2019-02-26T01:20:42.101Z,77.37
2019-02-26T01:23:51.885Z,80.70
2019-02-26T01:26:56.524Z,78.50
2019-02-26T01:30:03.536Z,76.77
2019-02-26T01:33:09.779Z,80.60
2019-02-26T01:36:16.302Z,76.03
2019-02-26T01:39:23.340Z,73.50
2019-02-26T01:42:29.839Z,72.60
2019-02-26T01:45:34.839Z,71.23
2019-02-26T01:48:41.289Z,68.13
2019-02-26T01:51:49.597Z,66.43
2019-02-26T01:54:55.841Z,67.23
2019-02-26T01:58:02.992Z,63.70
2019-02-26T02:01:16.726Z,63.97
2019-02-26T02:04:21.340Z,61.60
2019-02-26T02:07:28.122Z,58.83
2019-02-26T02:10:32.320Z,57.30
2019-02-26T02:13:40.785Z,58.57
2019-02-26T02:16:46.882Z,53.10
2019-02-26T02:19:53.420Z,53.20
2019-02-26T02:22:58.881Z,49.77
2019-02-26T02:26:07.128Z,49.57
2019-02-26T02:29:16.555Z,48.60
2019-02-26T02:32:20.924Z,44.20
2019-02-26T02:35:25.840Z,45.13
2019-02-26T02:38:36.676Z,43.60
2019-02-26T02:41:39.351Z,44.17
2019-02-26T02:44:44.844Z,41.20
2019-02-26T02:47:54.774Z,39.67
2019-02-26T02:50:59.502Z,39.10
2019-02-26T02:54:04.351Z,37.23
2019-02-26T02:57:12.238Z,37.60
2019-02-26T03:00:15.915Z,37.30
2019-02-26T03:03:23.521Z,34.73
2019-02-26T03:06:32.506Z,34.17
2019-02-26T03:09:43.046Z,34.27
2019-02-26T03:12:51.293Z,32.30
2019-02-26T03:15:56.192Z,32.70
2019-02-26T03:18:59.864Z,31.83
2019-02-26T03:22:04.652Z,30.67
2019-02-26T03:25:10.828Z,28.00
2019-02-26T03:28:16.641Z,29.10
2019-02-26T03:31:31.020Z,28.60
2019-02-26T03:34:32.968Z,27.13
2019-02-26T03:37:37.603Z,27.97
2019-02-26T03:40:42.274Z,27.30
2019-02-26T03:43:49.947Z,27.13
2019-02-26T03:46:54.572Z,25.03
2019-02-26T03:49:59.273Z,24.90
2019-02-26T03:53:04.012Z,25.10
2019-02-26T03:56:14.332Z,24.37
2019-02-26T03:59:16.127Z,24.03
2019-02-26T04:02:23.287Z,24.30
2019-02-26T04:05:27.431Z,22.93
2019-02-26T04:08:34.201Z,23.10
2019-02-26T04:11:39.341Z,23.40
2019-02-26T04:14:47.105Z,23.93
2019-02-26T04:17:53.770Z,21.70
2019-02-26T04:21:03.193Z,22.67
2019-02-26T04:24:08.669Z,21.17
2019-02-26T04:27:38.491Z,20.80
2019-02-26T04:31:12.202Z,18.60
2019-02-26T04:35:14.100Z,18.60
2019-02-26T04:39:07.640Z,19.33
2019-02-26T04:42:40.935Z,17.90
2019-02-26T04:46:36.941Z,18.87
2019-02-26T04:49:43.324Z,16.93
2019-02-26T04:52:48.050Z,22.03
2019-02-26T04:55:52.878Z,18.30
2019-02-26T04:58:57.745Z,17.10
2019-02-26T05:02:02.430Z,16.83
2019-02-26T05:05:07.390Z,17.77
2019-02-26T05:08:14.791Z,16.23
2019-02-26T05:11:31.207Z,16.50
2019-02-26T05:14:26.648Z,16.17
2019-02-26T05:17:33.837Z,16.60
2019-02-26T05:20:43.112Z,16.20
2019-02-26T05:23:51.778Z,14.67
2019-02-26T05:26:55.421Z,17.07
2019-02-26T05:30:01.923Z,14.67
2019-02-26T05:33:08.283Z,16.17
2019-02-26T05:36:14.920Z,15.90
2019-02-26T05:39:23.627Z,15.17
2019-02-26T05:42:29.600Z,14.43
2019-02-26T05:45:38.415Z,15.50
2019-02-26T05:48:42.996Z,14.57
2019-02-26T05:51:49.045Z,14.70
2019-02-26T05:54:53.730Z,15.50
2019-02-26T05:57:58.646Z,14.90
2019-02-26T06:01:05.795Z,13.77
2019-02-26T06:04:12.307Z,13.93
2019-02-26T06:07:19.460Z,13.50
2019-02-26T06:10:27.028Z,14.33
2019-02-26T06:13:33.926Z,13.40
2019-02-26T06:16:37.668Z,14.37
2019-02-26T06:19:48.100Z,13.57
2019-02-26T06:22:52.866Z,14.20
2019-02-26T06:25:59.039Z,14.03
2019-02-26T06:29:07.555Z,12.50
2019-02-26T06:32:14.206Z,13.10
2019-02-26T06:35:20.169Z,13.40
2019-02-26T06:38:26.389Z,12.83
2019-02-26T06:41:31.569Z,13.47
2019-02-26T06:44:36.889Z,14.00
2019-02-26T06:47:45.814Z,13.30
2019-02-26T06:50:55.217Z,13.37
2019-02-26T06:54:01.230Z,12.50
2019-02-26T06:57:09.003Z,12.93
2019-02-26T07:00:21.286Z,11.97
2019-02-26T07:03:25.741Z,12.93
2019-02-26T07:06:32.617Z,12.30
2019-02-26T07:09:39.078Z,12.10
2019-02-26T07:12:45.506Z,13.53
2019-02-26T07:15:56.443Z,11.53
2019-02-26T07:19:01.213Z,12.03
2019-02-26T07:22:11.017Z,12.23
2019-02-26T07:25:18.607Z,11.60
2019-02-26T07:28:26.444Z,11.63
2019-02-26T07:31:35.090Z,12.07
2019-02-26T07:34:42.930Z,12.33
2019-02-26T07:37:48.360Z,12.33
2019-02-26T07:40:54.331Z,11.67
2019-02-26T07:44:00.796Z,11.93
2019-02-26T07:47:06.722Z,11.87
2019-02-26T07:50:14.331Z,12.20
2019-02-26T07:53:21.621Z,11.63
2019-02-26T07:56:27.768Z,13.40
2019-02-26T07:59:42.419Z,13.43
2019-02-26T08:02:46.211Z,16.23
2019-02-26T08:05:50.971Z,15.80
2019-02-26T08:08:55.921Z,18.33
2019-02-26T08:12:02.451Z,18.00
2019-02-26T08:15:12.817Z,19.17
2019-02-26T08:18:17.344Z,19.03
2019-02-26T08:21:24.709Z,19.70
2019-02-26T08:24:31.096Z,19.87
2019-02-26T08:27:38.739Z,18.87
2019-02-26T08:30:47.079Z,20.00
2019-02-26T08:33:52.136Z,21.00
2019-02-26T08:36:56.968Z,20.97
2019-02-26T08:40:06.456Z,20.90
2019-02-26T08:43:11.240Z,20.40
2019-02-26T08:46:17.126Z,20.20
2019-02-26T08:49:22.619Z,20.10
2019-02-26T08:52:29.277Z,20.47
2019-02-26T08:55:33.726Z,20.80
2019-02-26T08:58:40.618Z,20.17
2019-02-26T09:01:45.125Z,19.03
2019-02-26T09:04:49.777Z,19.40
2019-02-26T09:07:54.494Z,19.03
2019-02-26T09:11:02.972Z,18.03
2019-02-26T09:14:07.107Z,18.40
2019-02-26T09:17:12.160Z,17.70
2019-02-26T09:20:18.652Z,18.30
2019-02-26T09:23:23.923Z,18.47
2019-02-26T09:26:29.710Z,19.23
2019-02-26T09:29:36.653Z,18.80
2019-02-26T09:32:44.184Z,17.87
2019-02-26T09:35:50.200Z,16.50
2019-02-26T09:38:55.988Z,17.17
2019-02-26T09:42:02.268Z,16.57
2019-02-26T09:45:09.724Z,15.80
2019-02-26T09:48:15.282Z,17.60
2019-02-26T09:51:20.939Z,17.53
2019-02-26T09:54:27.806Z,16.27
2019-02-26T09:57:32.674Z,18.10
2019-02-26T10:00:40.473Z,18.00
2019-02-26T10:03:44.373Z,18.20
2019-02-26T10:06:51.140Z,18.37
2019-02-26T10:09:55.648Z,19.77
2019-02-26T10:13:04.705Z,19.60
2019-02-26T10:16:08.964Z,21.83
2019-02-26T10:19:14.951Z,21.43
2019-02-26T10:22:21.311Z,23.20
2019-02-26T10:25:29.346Z,23.97
2019-02-26T10:28:35.140Z,23.57
2019-02-26T10:31:41.064Z,23.30
2019-02-26T10:34:45.033Z,25.80
2019-02-26T10:37:51.610Z,25.43
2019-02-26T10:41:01.906Z,27.50
2019-02-26T10:44:08.260Z,27.70
2019-02-26T10:47:14.525Z,28.20
2019-02-26T10:50:22.365Z,28.07
2019-02-26T10:53:26.012Z,30.70
2019-02-26T10:56:35.374Z,31.57
2019-02-26T10:59:37.200Z,33.83
2019-02-26T11:02:43.364Z,35.17
2019-02-26T11:05:51.726Z,35.07
2019-02-26T11:08:55.741Z,33.47
2019-02-26T11:12:03.078Z,34.40
2019-02-26T11:15:12.527Z,32.73
2019-02-26T11:18:18.127Z,31.50
2019-02-26T11:21:23.922Z,31.63
2019-02-26T11:24:30.766Z,30.57
2019-02-26T11:27:40.901Z,29.73
2019-02-26T11:30:46.541Z,30.10
2019-02-26T11:33:50.493Z,30.17
2019-02-26T11:36:56.119Z,29.73
2019-02-26T11:40:02.765Z,30.07
2019-02-26T11:43:12.383Z,30.37
2019-02-26T11:46:16.244Z,28.73
2019-02-26T11:49:21.790Z,30.17
2019-02-26T11:52:28.492Z,29.63
2019-02-26T11:55:35.083Z,28.80
2019-02-26T11:58:39.590Z,29.77
2019-02-26T12:01:44.526Z,29.03
2019-02-26T12:04:49.339Z,28.83
2019-02-26T12:07:58.876Z,27.87
2019-02-26T12:11:06.218Z,27.37
2019-02-26T12:14:13.701Z,28.30
2019-02-26T12:17:17.459Z,26.80
2019-02-26T12:20:24.183Z,27.50
2019-02-26T12:23:28.757Z,28.17
2019-02-26T12:26:33.479Z,26.83
2019-02-26T12:29:40.194Z,27.07
2019-02-26T12:32:47.260Z,27.27
2019-02-26T12:35:50.942Z,27.50
2019-02-26T12:42:13.457Z,27.40
2019-02-26T12:45:17.117Z,26.43
2019-02-26T12:48:22.790Z,28.07
2019-02-26T12:51:29.532Z,27.30
2019-02-26T12:54:37.774Z,26.43
2019-02-26T12:57:43.295Z,25.67
2019-02-26T13:00:49.226Z,27.53
2019-02-26T13:03:55.812Z,26.17
2019-02-26T13:07:00.659Z,26.70
2019-02-26T13:10:05.792Z,24.93
2019-02-26T13:13:10.615Z,25.43
2019-02-26T13:16:15.577Z,25.20
2019-02-26T13:19:22.676Z,26.13
2019-02-26T13:22:26.749Z,27.07
2019-02-26T13:25:31.444Z,25.90
2019-02-26T13:28:38.015Z,25.97
2019-02-26T13:31:50.864Z,26.00
2019-02-26T13:34:52.489Z,25.53
2019-02-26T13:37:55.968Z,27.23
2019-02-26T13:41:19.931Z,25.17
2019-02-26T13:44:15.873Z,24.70
2019-02-26T13:47:21.662Z,25.50
2019-02-26T13:50:27.718Z,24.80
2019-02-26T13:53:32.462Z,23.83
2019-02-26T13:56:37.264Z,25.17
2019-02-26T13:59:44.849Z,25.47
2019-02-26T14:02:49.578Z,24.93
2019-02-26T14:05:54.134Z,25.13
2019-02-26T14:08:58.750Z,23.00
2019-02-26T14:12:03.612Z,22.33
2019-02-26T14:15:09.047Z,22.80
2019-02-26T14:18:13.831Z,23.70
2019-02-26T14:21:18.608Z,23.20
2019-02-26T14:24:24.415Z,24.10
2019-02-26T14:27:31.361Z,23.27
2019-02-26T14:30:36.146Z,22.10
2019-02-26T14:33:40.972Z,23.30
2019-02-26T14:36:47.138Z,22.57
2019-02-26T14:39:51.949Z,22.50
2019-02-26T14:42:59.960Z,21.63
2019-02-26T14:46:04.696Z,22.27
2019-02-26T14:49:09.518Z,21.40
2019-02-26T14:52:17.097Z,22.20
2019-02-26T14:55:21.958Z,22.30
2019-02-26T14:58:26.889Z,21.90
2019-02-26T15:01:34.934Z,20.77
2019-02-26T15:04:39.320Z,19.17
2019-02-26T15:07:44.180Z,19.80
2019-02-26T15:10:48.947Z,20.83
2019-02-26T15:13:55.482Z,20.40
2019-02-26T15:17:00.467Z,20.10
2019-02-26T15:20:05.927Z,19.60
2019-02-26T15:23:11.535Z,19.23
2019-02-26T15:26:16.502Z,18.80
2019-02-26T15:29:22.525Z,19.73
2019-02-26T15:32:27.191Z,19.97
2019-02-26T15:35:31.961Z,18.43
2019-02-26T15:38:36.737Z,19.10
2019-02-26T15:41:41.709Z,17.87
2019-02-26T15:44:46.505Z,18.27
2019-02-26T15:47:52.938Z,18.80
2019-02-26T15:50:57.486Z,18.67
2019-02-26T15:54:02.540Z,18.13
2019-02-26T15:57:07.162Z,17.53
2019-02-26T16:00:15.688Z,18.70
2019-02-26T16:03:20.201Z,17.13
2019-02-26T16:06:25.532Z,17.40
2019-02-26T16:09:32.096Z,17.30
2019-02-26T16:12:36.941Z,18.30
2019-02-26T16:15:41.772Z,16.23
2019-02-26T16:18:48.651Z,17.27
2019-02-26T16:21:53.179Z,16.47
2019-02-26T16:24:57.925Z,16.77
2019-02-26T16:28:04.289Z,16.30
2019-02-26T16:31:09.115Z,17.30
2019-02-26T16:34:13.728Z,16.43
2019-02-26T16:37:20.608Z,16.33
2019-02-26T16:40:25.129Z,16.17
2019-02-26T16:43:29.861Z,16.10
2019-02-26T16:46:34.684Z,17.37
2019-02-26T16:49:39.520Z,14.40
2019-02-26T16:52:44.545Z,15.10
2019-02-26T16:55:51.124Z,14.43
2019-02-26T16:58:57.504Z,15.27
2019-02-26T17:02:04.040Z,14.17
2019-02-26T17:05:14.292Z,13.57
2019-02-26T17:08:17.387Z,14.17
2019-02-26T17:11:22.220Z,13.43
2019-02-26T17:14:26.997Z,13.93
2019-02-26T17:17:31.767Z,14.80
2019-02-26T17:20:36.524Z,13.53
2019-02-26T17:23:44.786Z,15.00
2019-02-26T17:26:50.666Z,14.97
2019-02-26T17:29:55.543Z,17.73
2019-02-26T17:33:00.501Z,19.30
2019-02-26T17:36:07.519Z,19.90
2019-02-26T17:39:12.454Z,20.47
2019-02-26T17:42:17.828Z,21.43
2019-02-26T17:45:24.458Z,21.60
2019-02-26T17:48:31.026Z,35.20
2019-02-26T17:51:36.603Z,34.23
2019-02-26T17:54:42.730Z,35.47
2019-02-26T17:57:47.389Z,31.93
2019-02-26T18:00:55.409Z,30.47
2019-02-26T18:04:00.115Z,32.97
2019-02-26T18:07:04.971Z,26.20
2019-02-26T18:10:12.931Z,26.30
2019-02-26T18:13:20.472Z,25.77
2019-02-26T18:16:26.800Z,23.30
2019-02-26T18:19:31.625Z,24.40
2019-02-26T18:22:36.460Z,24.10
2019-02-26T18:25:41.186Z,34.20
2019-02-26T18:28:47.914Z,34.13
2019-02-26T18:31:53.086Z,35.57
2019-02-26T18:34:57.831Z,39.77
2019-02-26T18:38:04.707Z,43.20
2019-02-26T18:41:09.529Z,40.73
2019-02-26T18:44:14.355Z,38.57
2019-02-26T18:47:20.569Z,41.33
2019-02-26T18:50:29.542Z,38.90
2019-02-26T18:53:34.593Z,35.47
2019-02-26T18:56:39.530Z,34.80
2019-02-26T18:59:44.476Z,40.40
2019-02-26T19:02:49.289Z,33.13
2019-02-26T19:05:54.893Z,33.10
2019-02-26T19:08:59.969Z,40.50
2019-02-26T19:12:04.825Z,34.13
2019-02-26T19:15:12.625Z,31.50
2019-02-26T19:18:19.401Z,30.33
2019-02-26T19:21:24.189Z,29.77
2019-02-26T19:24:29.147Z,29.73
2019-02-26T19:27:33.961Z,29.33
2019-02-26T19:30:38.688Z,29.30
2019-02-26T19:33:43.601Z,28.00
2019-02-26T19:36:48.452Z,27.70
2019-02-26T19:39:53.101Z,26.37
2019-02-26T19:42:57.911Z,27.37
2019-02-26T19:46:02.868Z,26.50
2019-02-26T19:49:07.687Z,25.30
2019-02-26T19:52:12.398Z,23.40
2019-02-26T19:55:20.866Z,24.83
2019-02-26T19:58:25.661Z,23.10
2019-02-26T20:01:30.268Z,22.60
2019-02-26T20:04:38.410Z,22.53
2019-02-26T20:07:41.241Z,39.37
2019-02-26T20:10:48.731Z,23.83
2019-02-26T20:13:54.569Z,23.00
2019-02-26T20:17:04.977Z,24.93
2019-02-26T20:20:07.392Z,22.83
2019-02-26T20:23:14.262Z,23.20
2019-02-26T20:26:18.536Z,21.97
2019-02-26T20:29:23.259Z,21.73
2019-02-26T20:32:31.629Z,21.77
2019-02-26T20:35:36.301Z,21.43
2019-02-26T20:38:41.242Z,21.90
2019-02-26T20:41:46.012Z,21.40
2019-02-26T20:44:58.783Z,21.17
2019-02-26T20:47:58.296Z,20.80
2019-02-26T20:51:03.232Z,30.97
2019-02-26T20:54:11.681Z,25.97
2019-02-26T20:57:16.352Z,19.63
2019-02-26T21:00:25.037Z,21.60
2019-02-26T21:03:27.856Z,19.50
2019-02-26T21:06:34.735Z,20.03
2019-02-26T21:09:45.132Z,20.30
2019-02-26T21:16:03.164Z,19.27
2019-02-26T21:19:07.879Z,18.67
2019-02-26T21:22:13.608Z,19.30
2019-02-26T21:25:18.453Z,20.30
2019-02-26T21:28:23.295Z,25.43
2019-02-26T21:31:28.249Z,77.67
2019-02-26T21:34:33.014Z,56.97
2019-02-26T21:37:37.507Z,59.80
2019-02-26T21:40:43.760Z,58.87
2019-02-26T21:43:48.602Z,55.30
2019-02-26T21:46:53.707Z,55.20
2019-02-26T21:50:00.788Z,54.30
2019-02-26T21:53:07.215Z,58.30
2019-02-26T21:56:15.481Z,64.30
2019-02-26T21:59:18.702Z,62.33
2019-02-26T22:02:24.464Z,65.97
2019-02-26T22:05:31.051Z,66.30
2019-02-26T22:08:35.807Z,67.23
2019-02-26T22:11:40.643Z,73.37
2019-02-26T22:14:45.410Z,79.07
2019-02-26T22:17:50.293Z,86.13
2019-02-26T22:20:55.243Z,89.00
2019-02-26T22:24:00.161Z,102.20
2019-02-26T22:27:05.293Z,95.90
2019-02-26T22:30:12.198Z,96.13
2019-02-26T22:33:17.029Z,95.93
2019-02-26T22:36:21.869Z,91.17
2019-02-26T22:39:26.558Z,91.07
2019-02-26T22:42:31.395Z,90.43
2019-02-26T22:45:36.124Z,91.93
2019-02-26T22:48:40.965Z,95.70
2019-02-26T22:51:46.984Z,102.13
2019-02-26T22:54:51.727Z,100.37
2019-02-26T22:57:56.249Z,101.90
2019-02-26T23:01:30.265Z,106.10
2019-02-26T23:04:28.964Z,108.70
2019-02-26T23:07:33.683Z,110.03
2019-02-26T23:10:38.401Z,112.03
2019-02-26T23:13:43.126Z,114.43
2019-02-26T23:16:52.690Z,111.43
2019-02-26T23:19:59.630Z,112.30
2019-02-26T23:23:04.078Z,110.90
2019-02-26T23:26:09.401Z,112.93
2019-02-26T23:29:14.272Z,113.90
2019-02-26T23:32:19.012Z,112.27
2019-02-26T23:35:23.795Z,117.80
2019-02-26T23:38:28.640Z,119.07
2019-02-26T23:41:33.800Z,118.37
2019-02-26T23:44:40.661Z,122.10
2019-02-26T23:47:45.596Z,121.17
2019-02-26T23:50:50.526Z,124.80
2019-02-26T23:53:55.229Z,124.23
2019-02-26T23:57:18.719Z,126.20
